sensor_id;sensor_type;location;lat;lon;timestamp;pressure;altitude;pressure_sealevel;temperature;humidity
65872;BME280;52653;50.080;21.992;2023-04-07T00:01:16;98815.34;;;0.98;96.09
65872;BME280;52653;50.080;21.992;2023-04-07T00:03:48;98820.05;;;0.99;95.93
65872;BME280;52653;50.080;21.992;2023-04-07T00:06:24;98821.36;;;1.04;95.95
65872;BME280;52653;50.080;21.992;2023-04-07T00:08:58;98821.64;;;1.08;96.01
65872;BME280;52653;50.080;21.992;2023-04-07T00:11:30;98821.16;;;1.09;95.99
65872;BME280;52653;50.080;21.992;2023-04-07T00:14:03;98819.77;;;1.09;95.81
65872;BME280;52653;50.080;21.992;2023-04-07T00:16:36;98821.57;;;1.13;95.69
65872;BME280;52653;50.080;21.992;2023-04-07T00:19:08;98820.57;;;1.14;95.75
65872;BME280;52653;50.080;21.992;2023-04-07T00:21:41;98813.20;;;1.09;95.57
65872;BME280;52653;50.080;21.992;2023-04-07T00:24:13;98816.89;;;1.04;95.56
65872;BME280;52653;50.080;21.992;2023-04-07T00:26:57;98817.42;;;0.98;95.98
65872;BME280;52653;50.080;21.992;2023-04-07T00:29:30;98810.43;;;0.94;96.11
65872;BME280;52653;50.080;21.992;2023-04-07T00:32:03;98806.95;;;0.93;96.18
65872;BME280;52653;50.080;21.992;2023-04-07T00:34:38;98799.88;;;0.93;96.47
65872;BME280;52653;50.080;21.992;2023-04-07T00:37:11;98798.66;;;0.93;96.43
65872;BME280;52653;50.080;21.992;2023-04-07T00:39:43;98791.77;;;0.94;96.54
65872;BME280;52653;50.080;21.992;2023-04-07T00:42:17;98783.63;;;0.92;96.65
65872;BME280;52653;50.080;21.992;2023-04-07T00:44:52;98783.80;;;0.92;96.80
65872;BME280;52653;50.080;21.992;2023-04-07T00:47:45;98781.73;;;0.92;96.72
65872;BME280;52653;50.080;21.992;2023-04-07T00:50:38;98785.02;;;0.92;96.80
65872;BME280;52653;50.080;21.992;2023-04-07T00:53:31;98786.67;;;0.97;96.85
65872;BME280;52653;50.080;21.992;2023-04-07T00:56:24;98783.30;;;1.00;96.68
65872;BME280;52653;50.080;21.992;2023-04-07T00:59:17;98773.48;;;1.02;96.62
65872;BME280;52653;50.080;21.992;2023-04-07T01:02:12;98783.87;;;1.02;96.32
65872;BME280;52653;50.080;21.992;2023-04-07T01:05:08;98787.94;;;1.06;96.29
65872;BME280;52653;50.080;21.992;2023-04-07T01:08:11;98776.18;;;1.06;96.35
65872;BME280;52653;50.080;21.992;2023-04-07T01:11:07;98764.60;;;1.05;96.11
65872;BME280;52653;50.080;21.992;2023-04-07T01:13:59;98768.24;;;1.06;96.15
65872;BME280;52653;50.080;21.992;2023-04-07T01:16:55;98779.31;;;1.07;96.11
65872;BME280;52653;50.080;21.992;2023-04-07T01:19:55;98774.39;;;1.02;96.19
65872;BME280;52653;50.080;21.992;2023-04-07T01:22:53;98786.20;;;0.99;96.24
65872;BME280;52653;50.080;21.992;2023-04-07T01:26:10;98790.19;;;1.00;96.35
65872;BME280;52653;50.080;21.992;2023-04-07T01:32:19;98768.55;;;0.98;96.25
65872;BME280;52653;50.080;21.992;2023-04-07T01:35:14;98760.91;;;0.95;96.26
65872;BME280;52653;50.080;21.992;2023-04-07T01:38:09;98755.42;;;0.97;96.41
65872;BME280;52653;50.080;21.992;2023-04-07T01:41:03;98765.34;;;1.01;96.30
65872;BME280;52653;50.080;21.992;2023-04-07T01:43:58;98774.56;;;1.03;96.21
65872;BME280;52653;50.080;21.992;2023-04-07T01:46:51;98751.27;;;1.03;96.15
65872;BME280;52653;50.080;21.992;2023-04-07T01:49:46;98752.85;;;1.04;96.04
65872;BME280;52653;50.080;21.992;2023-04-07T01:52:40;98770.14;;;1.06;95.91
65872;BME280;52653;50.080;21.992;2023-04-07T01:55:33;98770.02;;;1.09;95.96
65872;BME280;52653;50.080;21.992;2023-04-07T01:58:24;98778.48;;;1.15;96.04
65872;BME280;52653;50.080;21.992;2023-04-07T02:01:17;98770.45;;;1.20;95.77
65872;BME280;52653;50.080;21.992;2023-04-07T02:03:58;98764.95;;;1.22;95.55
65872;BME280;52653;50.080;21.992;2023-04-07T02:06:58;98770.43;;;1.18;95.49
65872;BME280;52653;50.080;21.992;2023-04-07T02:09:52;98774.80;;;1.14;95.53
65872;BME280;52653;50.080;21.992;2023-04-07T02:12:39;98778.33;;;1.09;95.76
65872;BME280;52653;50.080;21.992;2023-04-07T02:15:36;98778.60;;;1.06;95.89
65872;BME280;52653;50.080;21.992;2023-04-07T02:18:21;98777.08;;;1.07;95.97
65872;BME280;52653;50.080;21.992;2023-04-07T02:21:17;98766.22;;;1.09;96.19
65872;BME280;52653;50.080;21.992;2023-04-07T02:24:12;98760.16;;;1.07;96.26
65872;BME280;52653;50.080;21.992;2023-04-07T02:27:06;98753.14;;;1.10;96.34
65872;BME280;52653;50.080;21.992;2023-04-07T02:29:59;98747.94;;;1.09;96.34
65872;BME280;52653;50.080;21.992;2023-04-07T02:32:54;98747.56;;;1.08;96.55
65872;BME280;52653;50.080;21.992;2023-04-07T02:35:48;98756.54;;;1.09;96.62
65872;BME280;52653;50.080;21.992;2023-04-07T02:38:41;98752.04;;;1.07;96.65
65872;BME280;52653;50.080;21.992;2023-04-07T02:41:27;98755.00;;;1.09;96.79
65872;BME280;52653;50.080;21.992;2023-04-07T02:44:20;98757.30;;;1.11;96.78
65872;BME280;52653;50.080;21.992;2023-04-07T02:47:12;98752.41;;;1.09;96.81
65872;BME280;52653;50.080;21.992;2023-04-07T02:49:58;98744.63;;;1.08;96.88
65872;BME280;52653;50.080;21.992;2023-04-07T02:52:51;98743.72;;;1.06;97.05
65872;BME280;52653;50.080;21.992;2023-04-07T02:55:44;98741.16;;;1.07;97.04
65872;BME280;52653;50.080;21.992;2023-04-07T02:58:37;98743.95;;;1.09;96.97
65872;BME280;52653;50.080;21.992;2023-04-07T03:01:30;98739.64;;;1.09;97.17
65872;BME280;52653;50.080;21.992;2023-04-07T03:04:25;98744.62;;;1.07;97.08
65872;BME280;52653;50.080;21.992;2023-04-07T03:07:17;98745.66;;;1.08;97.24
65872;BME280;52653;50.080;21.992;2023-04-07T03:10:11;98752.34;;;1.05;97.18
65872;BME280;52653;50.080;21.992;2023-04-07T03:13:03;98756.27;;;1.03;97.30
65872;BME280;52653;50.080;21.992;2023-04-07T03:15:56;98763.61;;;1.00;97.39
65872;BME280;52653;50.080;21.992;2023-04-07T03:18:49;98760.17;;;1.01;97.45
65872;BME280;52653;50.080;21.992;2023-04-07T03:21:41;98763.73;;;1.05;97.38
65872;BME280;52653;50.080;21.992;2023-04-07T03:24:34;98762.10;;;1.09;97.24
65872;BME280;52653;50.080;21.992;2023-04-07T03:27:28;98766.87;;;1.14;97.34
65872;BME280;52653;50.080;21.992;2023-04-07T03:30:13;98766.41;;;1.16;97.15
65872;BME280;52653;50.080;21.992;2023-04-07T03:33:06;98767.66;;;1.18;97.00
65872;BME280;52653;50.080;21.992;2023-04-07T03:36:01;98765.92;;;1.18;96.91
65872;BME280;52653;50.080;21.992;2023-04-07T03:38:54;98772.65;;;1.17;96.94
65872;BME280;52653;50.080;21.992;2023-04-07T03:41:49;98780.23;;;1.16;97.02
65872;BME280;52653;50.080;21.992;2023-04-07T03:44:41;98781.89;;;1.14;97.03
65872;BME280;52653;50.080;21.992;2023-04-07T03:47:35;98782.15;;;1.10;96.89
65872;BME280;52653;50.080;21.992;2023-04-07T03:50:28;98779.71;;;1.09;96.85
65872;BME280;52653;50.080;21.992;2023-04-07T03:53:21;98781.66;;;1.12;96.84
65872;BME280;52653;50.080;21.992;2023-04-07T03:56:08;98777.89;;;1.13;96.88
65872;BME280;52653;50.080;21.992;2023-04-07T03:59:00;98769.31;;;1.14;96.79
65872;BME280;52653;50.080;21.992;2023-04-07T04:01:53;98775.30;;;1.13;96.71
65872;BME280;52653;50.080;21.992;2023-04-07T04:04:46;98774.84;;;1.15;96.62
65872;BME280;52653;50.080;21.992;2023-04-07T04:07:33;98770.73;;;1.16;96.64
65872;BME280;52653;50.080;21.992;2023-04-07T04:10:26;98768.83;;;1.16;96.61
65872;BME280;52653;50.080;21.992;2023-04-07T04:13:18;98779.04;;;1.17;96.51
65872;BME280;52653;50.080;21.992;2023-04-07T04:16:11;98779.59;;;1.19;96.63
65872;BME280;52653;50.080;21.992;2023-04-07T04:19:05;98783.54;;;1.18;96.64
65872;BME280;52653;50.080;21.992;2023-04-07T04:21:58;98788.41;;;1.20;96.53
65872;BME280;52653;50.080;21.992;2023-04-07T04:24:51;98781.73;;;1.23;96.54
65872;BME280;52653;50.080;21.992;2023-04-07T04:27:24;98788.87;;;1.26;96.59
65872;BME280;52653;50.080;21.992;2023-04-07T04:30:04;98796.89;;;1.28;96.39
65872;BME280;52653;50.080;21.992;2023-04-07T04:32:41;98798.65;;;1.29;96.14
65872;BME280;52653;50.080;21.992;2023-04-07T04:35:19;98798.37;;;1.32;96.10
65872;BME280;52653;50.080;21.992;2023-04-07T04:38:05;98804.30;;;1.36;95.95
65872;BME280;52653;50.080;21.992;2023-04-07T04:40:37;98804.09;;;1.41;96.07
65872;BME280;52653;50.080;21.992;2023-04-07T04:43:13;98795.08;;;1.48;96.00
65872;BME280;52653;50.080;21.992;2023-04-07T04:45:46;98792.81;;;1.55;95.87
65872;BME280;52653;50.080;21.992;2023-04-07T04:48:19;98792.36;;;1.58;95.44
65872;BME280;52653;50.080;21.992;2023-04-07T04:50:51;98794.27;;;1.60;94.88
65872;BME280;52653;50.080;21.992;2023-04-07T04:53:24;98795.62;;;1.57;94.71
65872;BME280;52653;50.080;21.992;2023-04-07T04:56:02;98787.00;;;1.58;94.62
65872;BME280;52653;50.080;21.992;2023-04-07T04:58:47;98789.70;;;1.63;94.58
65872;BME280;52653;50.080;21.992;2023-04-07T05:01:27;98791.86;;;1.67;94.40
65872;BME280;52653;50.080;21.992;2023-04-07T05:04:08;98788.59;;;1.68;94.21
65872;BME280;52653;50.080;21.992;2023-04-07T05:06:44;98790.61;;;1.65;94.00
65872;BME280;52653;50.080;21.992;2023-04-07T05:09:18;98797.09;;;1.61;94.05
65872;BME280;52653;50.080;21.992;2023-04-07T05:11:51;98796.83;;;1.57;94.17
65872;BME280;52653;50.080;21.992;2023-04-07T05:14:25;98802.21;;;1.59;94.46
65872;BME280;52653;50.080;21.992;2023-04-07T05:17:02;98806.09;;;1.62;94.56
65872;BME280;52653;50.080;21.992;2023-04-07T05:19:35;98803.33;;;1.62;94.15
65872;BME280;52653;50.080;21.992;2023-04-07T05:22:14;98798.69;;;1.64;94.22
65872;BME280;52653;50.080;21.992;2023-04-07T05:24:50;98797.02;;;1.66;94.09
65872;BME280;52653;50.080;21.992;2023-04-07T05:27:23;98793.45;;;1.68;94.01
65872;BME280;52653;50.080;21.992;2023-04-07T05:29:57;98792.63;;;1.71;93.76
65872;BME280;52653;50.080;21.992;2023-04-07T05:32:33;98789.77;;;1.75;93.72
65872;BME280;52653;50.080;21.992;2023-04-07T05:35:11;98792.02;;;1.83;93.74
65872;BME280;52653;50.080;21.992;2023-04-07T05:37:51;98799.23;;;1.90;93.50
65872;BME280;52653;50.080;21.992;2023-04-07T05:40:24;98808.02;;;1.96;93.21
65872;BME280;52653;50.080;21.992;2023-04-07T05:42:58;98817.76;;;2.00;92.93
65872;BME280;52653;50.080;21.992;2023-04-07T05:45:33;98821.70;;;2.06;92.98
65872;BME280;52653;50.080;21.992;2023-04-07T05:48:08;98823.48;;;2.09;92.43
65872;BME280;52653;50.080;21.992;2023-04-07T05:50:45;98816.94;;;2.11;92.18
65872;BME280;52653;50.080;21.992;2023-04-07T05:53:23;98813.69;;;2.13;91.95
65872;BME280;52653;50.080;21.992;2023-04-07T05:55:55;98811.79;;;2.13;91.59
65872;BME280;52653;50.080;21.992;2023-04-07T05:58:40;98813.51;;;2.13;91.52
65872;BME280;52653;50.080;21.992;2023-04-07T06:01:13;98813.67;;;2.13;91.39
65872;BME280;52653;50.080;21.992;2023-04-07T06:03:45;98816.84;;;2.15;91.62
65872;BME280;52653;50.080;21.992;2023-04-07T06:06:23;98818.20;;;2.22;91.63
65872;BME280;52653;50.080;21.992;2023-04-07T06:08:56;98819.63;;;2.25;91.19
65872;BME280;52653;50.080;21.992;2023-04-07T06:11:29;98819.52;;;2.27;91.12
65872;BME280;52653;50.080;21.992;2023-04-07T06:14:01;98816.09;;;2.29;90.91
65872;BME280;52653;50.080;21.992;2023-04-07T06:16:34;98816.02;;;2.35;90.90
65872;BME280;52653;50.080;21.992;2023-04-07T06:19:09;98814.83;;;2.37;90.86
65872;BME280;52653;50.080;21.992;2023-04-07T06:21:41;98810.23;;;2.41;90.85
65872;BME280;52653;50.080;21.992;2023-04-07T06:24:14;98813.32;;;2.49;90.86
65872;BME280;52653;50.080;21.992;2023-04-07T06:26:47;98817.27;;;2.56;90.59
65872;BME280;52653;50.080;21.992;2023-04-07T06:29:20;98829.33;;;2.63;90.33
65872;BME280;52653;50.080;21.992;2023-04-07T06:31:53;98826.73;;;2.73;90.50
65872;BME280;52653;50.080;21.992;2023-04-07T06:34:26;98818.77;;;2.84;90.16
65872;BME280;52653;50.080;21.992;2023-04-07T06:36:58;98813.77;;;2.95;89.66
65872;BME280;52653;50.080;21.992;2023-04-07T06:39:31;98823.16;;;2.97;88.78
65872;BME280;52653;50.080;21.992;2023-04-07T06:42:04;98829.89;;;2.85;87.93
65872;BME280;52653;50.080;21.992;2023-04-07T06:44:42;98833.51;;;2.74;88.49
65872;BME280;52653;50.080;21.992;2023-04-07T06:47:15;98835.50;;;2.69;88.81
65872;BME280;52653;50.080;21.992;2023-04-07T06:49:47;98839.69;;;2.71;89.24
65872;BME280;52653;50.080;21.992;2023-04-07T06:52:20;98843.30;;;2.69;88.70
65872;BME280;52653;50.080;21.992;2023-04-07T06:54:53;98845.55;;;2.60;88.66
65872;BME280;52653;50.080;21.992;2023-04-07T06:57:27;98844.45;;;2.56;88.92
65872;BME280;52653;50.080;21.992;2023-04-07T07:00:01;98842.71;;;2.55;88.88
65872;BME280;52653;50.080;21.992;2023-04-07T07:02:34;98843.98;;;2.58;89.03
65872;BME280;52653;50.080;21.992;2023-04-07T07:05:08;98846.86;;;2.55;88.64
65872;BME280;52653;50.080;21.992;2023-04-07T07:07:44;98846.77;;;2.59;89.12
65872;BME280;52653;50.080;21.992;2023-04-07T07:10:28;98846.48;;;2.65;88.81
65872;BME280;52653;50.080;21.992;2023-04-07T07:13:03;98845.33;;;2.67;88.56
65872;BME280;52653;50.080;21.992;2023-04-07T07:15:36;98825.27;;;2.78;88.91
65872;BME280;52653;50.080;21.992;2023-04-07T07:18:29;98819.36;;;2.99;88.57
65872;BME280;52653;50.080;21.992;2023-04-07T07:21:02;98823.54;;;3.10;87.43
65872;BME280;52653;50.080;21.992;2023-04-07T07:23:34;98823.05;;;3.24;87.20
65872;BME280;52653;50.080;21.992;2023-04-07T07:26:07;98815.84;;;3.40;86.76
65872;BME280;52653;50.080;21.992;2023-04-07T07:28:39;98813.23;;;3.65;86.48
65872;BME280;52653;50.080;21.992;2023-04-07T07:31:15;98818.98;;;3.93;85.93
65872;BME280;52653;50.080;21.992;2023-04-07T07:34:09;98823.35;;;4.10;84.81
65872;BME280;52653;50.080;21.992;2023-04-07T07:36:44;98818.98;;;4.23;84.01
65872;BME280;52653;50.080;21.992;2023-04-07T07:39:38;98825.65;;;4.30;84.16
65872;BME280;52653;50.080;21.992;2023-04-07T07:42:21;98827.65;;;4.38;83.90
65872;BME280;52653;50.080;21.992;2023-04-07T07:45:06;98832.08;;;4.45;83.47
65872;BME280;52653;50.080;21.992;2023-04-07T07:47:42;98842.38;;;4.51;83.43
65872;BME280;52653;50.080;21.992;2023-04-07T07:50:25;98843.23;;;4.48;82.50
65872;BME280;52653;50.080;21.992;2023-04-07T07:52:58;98847.48;;;4.42;82.36
65872;BME280;52653;50.080;21.992;2023-04-07T07:55:31;98852.69;;;4.41;82.90
65872;BME280;52653;50.080;21.992;2023-04-07T07:58:04;98855.73;;;4.34;82.35
65872;BME280;52653;50.080;21.992;2023-04-07T08:00:37;98855.16;;;4.14;81.85
65872;BME280;52653;50.080;21.992;2023-04-07T08:03:11;98855.71;;;4.03;82.56
65872;BME280;52653;50.080;21.992;2023-04-07T08:05:55;98854.66;;;4.03;83.06
65872;BME280;52653;50.080;21.992;2023-04-07T08:08:28;98865.42;;;4.02;83.37
65872;BME280;52653;50.080;21.992;2023-04-07T08:11:01;98867.98;;;3.99;83.26
65872;BME280;52653;50.080;21.992;2023-04-07T08:13:38;98867.27;;;3.98;83.26
65872;BME280;52653;50.080;21.992;2023-04-07T08:16:27;98871.54;;;3.93;83.03
65872;BME280;52653;50.080;21.992;2023-04-07T08:19:00;98866.45;;;3.89;83.69
65872;BME280;52653;50.080;21.992;2023-04-07T08:21:44;98875.37;;;3.93;84.01
65872;BME280;52653;50.080;21.992;2023-04-07T08:24:28;98889.46;;;3.96;84.26
65872;BME280;52653;50.080;21.992;2023-04-07T08:27:01;98881.60;;;3.93;83.95
65872;BME280;52653;50.080;21.992;2023-04-07T08:29:36;98879.25;;;3.98;84.06
65872;BME280;52653;50.080;21.992;2023-04-07T08:32:09;98886.86;;;4.08;84.49
65872;BME280;52653;50.080;21.992;2023-04-07T08:34:44;98887.06;;;4.11;83.60
65872;BME280;52653;50.080;21.992;2023-04-07T08:37:17;98883.70;;;4.07;83.16
65872;BME280;52653;50.080;21.992;2023-04-07T08:39:59;98884.90;;;4.06;83.40
65872;BME280;52653;50.080;21.992;2023-04-07T08:42:56;98888.16;;;4.16;83.85
65872;BME280;52653;50.080;21.992;2023-04-07T08:45:33;98884.45;;;4.26;83.52
65872;BME280;52653;50.080;21.992;2023-04-07T08:48:17;98884.54;;;4.32;83.18
65872;BME280;52653;50.080;21.992;2023-04-07T08:51:08;98890.34;;;4.38;82.91
65872;BME280;52653;50.080;21.992;2023-04-07T08:54:08;98881.61;;;4.34;82.49
65872;BME280;52653;50.080;21.992;2023-04-07T08:57:00;98890.25;;;4.32;82.45
65872;BME280;52653;50.080;21.992;2023-04-07T08:59:54;98893.33;;;4.28;82.99
65872;BME280;52653;50.080;21.992;2023-04-07T09:02:47;98890.67;;;4.22;83.03
65872;BME280;52653;50.080;21.992;2023-04-07T09:05:44;98891.19;;;4.22;83.42
65872;BME280;52653;50.080;21.992;2023-04-07T09:08:30;98893.46;;;4.24;83.17
65872;BME280;52653;50.080;21.992;2023-04-07T09:11:17;98891.95;;;4.29;83.01
65872;BME280;52653;50.080;21.992;2023-04-07T09:14:10;98891.16;;;4.34;82.85
65872;BME280;52653;50.080;21.992;2023-04-07T09:16:45;98896.27;;;4.41;82.57
65872;BME280;52653;50.080;21.992;2023-04-07T09:19:38;98896.44;;;4.41;82.16
65872;BME280;52653;50.080;21.992;2023-04-07T09:22:11;98896.09;;;4.41;82.29
65872;BME280;52653;50.080;21.992;2023-04-07T09:25:16;98896.10;;;4.41;82.52
65872;BME280;52653;50.080;21.992;2023-04-07T09:28:09;98892.17;;;4.46;82.45
65872;BME280;52653;50.080;21.992;2023-04-07T09:30:55;98895.77;;;4.43;82.21
65872;BME280;52653;50.080;21.992;2023-04-07T09:33:49;98900.36;;;4.35;82.04
65872;BME280;52653;50.080;21.992;2023-04-07T09:36:41;98900.27;;;4.26;82.67
65872;BME280;52653;50.080;21.992;2023-04-07T09:39:35;98896.65;;;4.30;83.56
65872;BME280;52653;50.080;21.992;2023-04-07T09:42:46;98895.84;;;4.34;83.05
65872;BME280;52653;50.080;21.992;2023-04-07T09:45:41;98900.60;;;4.40;82.90
65872;BME280;52653;50.080;21.992;2023-04-07T09:48:34;98901.78;;;4.36;82.71
65872;BME280;52653;50.080;21.992;2023-04-07T09:51:26;98904.65;;;4.31;82.69
65872;BME280;52653;50.080;21.992;2023-04-07T09:54:32;98902.79;;;4.34;83.26
65872;BME280;52653;50.080;21.992;2023-04-07T09:57:26;98908.07;;;4.40;83.10
65872;BME280;52653;50.080;21.992;2023-04-07T10:00:01;98911.03;;;4.42;82.96
65872;BME280;52653;50.080;21.992;2023-04-07T10:02:56;98912.67;;;4.46;83.00
65872;BME280;52653;50.080;21.992;2023-04-07T10:05:42;98913.04;;;4.49;83.09
65872;BME280;52653;50.080;21.992;2023-04-07T10:08:37;98913.81;;;4.41;82.32
65872;BME280;52653;50.080;21.992;2023-04-07T10:11:33;98911.08;;;4.30;82.46
65872;BME280;52653;50.080;21.992;2023-04-07T10:14:30;98909.71;;;4.33;83.39
65872;BME280;52653;50.080;21.992;2023-04-07T10:17:05;98913.02;;;4.33;83.24
65872;BME280;52653;50.080;21.992;2023-04-07T10:19:39;98919.05;;;4.30;83.41
65872;BME280;52653;50.080;21.992;2023-04-07T10:22:14;98912.56;;;4.24;83.22
65872;BME280;52653;50.080;21.992;2023-04-07T10:24:54;98908.81;;;4.17;83.31
65872;BME280;52653;50.080;21.992;2023-04-07T10:27:33;98912.30;;;4.17;83.77
65872;BME280;52653;50.080;21.992;2023-04-07T10:30:18;98916.59;;;4.14;83.65
65872;BME280;52653;50.080;21.992;2023-04-07T10:32:53;98921.14;;;4.05;83.16
65872;BME280;52653;50.080;21.992;2023-04-07T10:35:28;98929.61;;;4.01;83.84
65872;BME280;52653;50.080;21.992;2023-04-07T10:38:21;98941.55;;;3.99;84.24
65872;BME280;52653;50.080;21.992;2023-04-07T10:40:54;98942.14;;;3.92;84.10
65872;BME280;52653;50.080;21.992;2023-04-07T10:43:40;98948.81;;;3.96;84.50
65872;BME280;52653;50.080;21.992;2023-04-07T10:46:14;98956.14;;;4.00;84.73
65872;BME280;52653;50.080;21.992;2023-04-07T10:49:08;98965.83;;;4.11;85.45
65872;BME280;52653;50.080;21.992;2023-04-07T10:51:43;98962.45;;;4.18;85.08
65872;BME280;52653;50.080;21.992;2023-04-07T10:54:20;98966.10;;;4.18;84.31
65872;BME280;52653;50.080;21.992;2023-04-07T10:57:13;98963.15;;;4.18;84.20
65872;BME280;52653;50.080;21.992;2023-04-07T11:00:17;98965.30;;;4.22;84.83
65872;BME280;52653;50.080;21.992;2023-04-07T11:02:49;98961.98;;;4.33;85.14
65872;BME280;52653;50.080;21.992;2023-04-07T11:05:29;98963.29;;;4.41;84.95
65872;BME280;52653;50.080;21.992;2023-04-07T11:08:06;98961.48;;;4.48;84.26
65872;BME280;52653;50.080;21.992;2023-04-07T11:10:39;98960.73;;;4.59;84.17
65872;BME280;52653;50.080;21.992;2023-04-07T11:13:12;98963.85;;;4.72;84.06
65872;BME280;52653;50.080;21.992;2023-04-07T11:16:00;98957.84;;;4.94;84.30
65872;BME280;52653;50.080;21.992;2023-04-07T11:18:34;98958.02;;;5.11;83.25
65872;BME280;52653;50.080;21.992;2023-04-07T11:21:08;98958.66;;;5.23;82.64
65872;BME280;52653;50.080;21.992;2023-04-07T11:23:43;98959.31;;;5.37;82.41
65872;BME280;52653;50.080;21.992;2023-04-07T11:26:21;98966.10;;;5.58;82.37
65872;BME280;52653;50.080;21.992;2023-04-07T11:28:54;98971.60;;;5.72;82.47
65872;BME280;52653;50.080;21.992;2023-04-07T11:31:30;98973.38;;;5.77;82.10
65872;BME280;52653;50.080;21.992;2023-04-07T11:34:13;98976.34;;;5.78;81.81
65872;BME280;52653;50.080;21.992;2023-04-07T11:36:50;98976.04;;;5.84;81.83
65872;BME280;52653;50.080;21.992;2023-04-07T11:39:32;98978.00;;;5.88;81.34
65872;BME280;52653;50.080;21.992;2023-04-07T11:42:36;98982.31;;;5.84;80.46
65872;BME280;52653;50.080;21.992;2023-04-07T11:45:28;98989.58;;;5.80;80.98
65872;BME280;52653;50.080;21.992;2023-04-07T11:48:05;98993.20;;;5.74;81.19
65872;BME280;52653;50.080;21.992;2023-04-07T11:50:48;98990.17;;;5.67;81.35
65872;BME280;52653;50.080;21.992;2023-04-07T11:53:32;98991.61;;;5.72;81.91
65872;BME280;52653;50.080;21.992;2023-04-07T11:56:09;98991.54;;;5.85;81.80
65872;BME280;52653;50.080;21.992;2023-04-07T11:58:57;98995.02;;;6.06;81.83
65872;BME280;52653;50.080;21.992;2023-04-07T12:01:40;98996.69;;;6.20;81.40
65872;BME280;52653;50.080;21.992;2023-04-07T12:04:16;98993.45;;;6.32;81.13
65872;BME280;52653;50.080;21.992;2023-04-07T12:06:51;98995.95;;;6.44;81.07
65872;BME280;52653;50.080;21.992;2023-04-07T12:09:30;98997.23;;;6.54;80.85
65872;BME280;52653;50.080;21.992;2023-04-07T12:12:05;98998.14;;;6.63;80.58
65872;BME280;52653;50.080;21.992;2023-04-07T12:14:40;99003.59;;;6.73;79.39
65872;BME280;52653;50.080;21.992;2023-04-07T12:17:22;99002.54;;;6.73;78.58
65872;BME280;52653;50.080;21.992;2023-04-07T12:20:00;99006.70;;;6.69;77.93
65872;BME280;52653;50.080;21.992;2023-04-07T12:22:33;99011.20;;;6.61;77.33
65872;BME280;52653;50.080;21.992;2023-04-07T12:25:08;99014.27;;;6.47;77.34
65872;BME280;52653;50.080;21.992;2023-04-07T12:27:42;99015.45;;;6.42;78.53
65872;BME280;52653;50.080;21.992;2023-04-07T12:30:25;99016.54;;;6.49;78.98
65872;BME280;52653;50.080;21.992;2023-04-07T12:32:58;99024.06;;;6.55;78.47
65872;BME280;52653;50.080;21.992;2023-04-07T12:35:30;99025.29;;;6.57;78.40
65872;BME280;52653;50.080;21.992;2023-04-07T12:38:10;99029.35;;;6.64;78.76
65872;BME280;52653;50.080;21.992;2023-04-07T12:40:44;99028.14;;;6.70;79.14
65872;BME280;52653;50.080;21.992;2023-04-07T12:43:17;99026.23;;;6.70;79.13
65872;BME280;52653;50.080;21.992;2023-04-07T12:45:50;99028.84;;;6.71;78.81
65872;BME280;52653;50.080;21.992;2023-04-07T12:48:24;99035.64;;;6.68;77.96
65872;BME280;52653;50.080;21.992;2023-04-07T12:50:58;99031.98;;;6.72;78.79
65872;BME280;52653;50.080;21.992;2023-04-07T12:53:30;99034.98;;;6.79;78.73
65872;BME280;52653;50.080;21.992;2023-04-07T12:56:06;99033.11;;;6.86;78.61
65872;BME280;52653;50.080;21.992;2023-04-07T12:58:39;99036.30;;;6.99;78.34
65872;BME280;52653;50.080;21.992;2023-04-07T13:01:13;99037.92;;;7.16;78.14
65872;BME280;52653;50.080;21.992;2023-04-07T13:03:47;99033.27;;;7.40;77.84
65872;BME280;52653;50.080;21.992;2023-04-07T13:06:41;99036.98;;;7.63;77.72
65872;BME280;52653;50.080;21.992;2023-04-07T13:09:16;99040.83;;;7.75;77.60
65872;BME280;52653;50.080;21.992;2023-04-07T13:11:51;99045.54;;;7.71;76.62
65872;BME280;52653;50.080;21.992;2023-04-07T13:14:27;99047.44;;;7.53;76.73
65872;BME280;52653;50.080;21.992;2023-04-07T13:17:02;99048.61;;;7.33;76.53
65872;BME280;52653;50.080;21.992;2023-04-07T13:19:38;99055.34;;;7.08;76.61
65872;BME280;52653;50.080;21.992;2023-04-07T13:22:31;99054.37;;;6.85;76.75
65872;BME280;52653;50.080;21.992;2023-04-07T13:25:26;99059.00;;;6.71;77.61
65872;BME280;52653;50.080;21.992;2023-04-07T13:28:19;99062.28;;;6.64;78.28
65872;BME280;52653;50.080;21.992;2023-04-07T13:31:15;99063.67;;;6.65;78.89
65872;BME280;52653;50.080;21.992;2023-04-07T13:33:58;99064.56;;;6.69;79.19
65872;BME280;52653;50.080;21.992;2023-04-07T13:36:31;99067.58;;;6.75;79.78
65872;BME280;52653;50.080;21.992;2023-04-07T13:39:07;99066.38;;;6.84;79.39
65872;BME280;52653;50.080;21.992;2023-04-07T13:42:00;99062.60;;;6.95;79.09
65872;BME280;52653;50.080;21.992;2023-04-07T13:44:54;99068.77;;;7.09;78.55
65872;BME280;52653;50.080;21.992;2023-04-07T13:47:38;99074.39;;;7.18;77.76
65872;BME280;52653;50.080;21.992;2023-04-07T13:50:30;99070.19;;;7.14;77.23
65872;BME280;52653;50.080;21.992;2023-04-07T13:53:23;99077.29;;;7.05;77.54
65872;BME280;52653;50.080;21.992;2023-04-07T13:55:56;99072.55;;;6.97;77.86
65872;BME280;52653;50.080;21.992;2023-04-07T13:58:29;99074.10;;;6.90;78.16
65872;BME280;52653;50.080;21.992;2023-04-07T14:01:13;99075.79;;;6.81;78.19
65872;BME280;52653;50.080;21.992;2023-04-07T14:03:50;99073.14;;;6.73;78.42
65872;BME280;52653;50.080;21.992;2023-04-07T14:06:26;99076.58;;;6.69;78.59
65872;BME280;52653;50.080;21.992;2023-04-07T14:08:59;99078.67;;;6.68;78.75
65872;BME280;52653;50.080;21.992;2023-04-07T14:11:52;99080.42;;;6.71;78.64
65872;BME280;52653;50.080;21.992;2023-04-07T14:14:36;99083.21;;;6.70;77.99
65872;BME280;52653;50.080;21.992;2023-04-07T14:17:10;99084.79;;;6.70;78.08
65872;BME280;52653;50.080;21.992;2023-04-07T14:19:47;99085.88;;;6.77;78.72
65872;BME280;52653;50.080;21.992;2023-04-07T14:22:20;99080.50;;;6.84;78.16
65872;BME280;52653;50.080;21.992;2023-04-07T14:24:53;99086.45;;;6.86;77.23